createdAt,value
2018-12-16T00:00:03.838Z,31.43
2018-12-16T00:02:34.879Z,29.13
2018-12-16T00:05:05.890Z,32.37
2018-12-16T00:07:37.076Z,29.73
2018-12-16T00:10:06.695Z,29.70
2018-12-16T00:12:35.842Z,29.93
2018-12-16T00:15:05.617Z,31.07
2018-12-16T00:17:34.759Z,28.83
2018-12-16T00:20:04.013Z,29.63
2018-12-16T00:22:33.261Z,28.47
2018-12-16T00:25:02.968Z,28.83
2018-12-16T00:27:31.990Z,26.63
2018-12-16T00:30:01.078Z,27.47
2018-12-16T00:32:30.131Z,27.93
2018-12-16T00:34:59.138Z,29.00
2018-12-16T00:37:28.157Z,32.63
2018-12-16T00:39:57.217Z,31.07
2018-12-16T00:42:26.223Z,30.27
2018-12-16T00:44:55.281Z,35.17
2018-12-16T00:47:24.492Z,34.03
2018-12-16T00:49:53.539Z,33.77
2018-12-16T00:52:22.621Z,32.40
2018-12-16T00:54:51.694Z,37.03
2018-12-16T00:57:20.797Z,33.97
2018-12-16T00:59:49.871Z,33.20
2018-12-16T01:02:24.036Z,34.43
2018-12-16T01:04:53.188Z,37.70
2018-12-16T01:07:22.242Z,35.47
2018-12-16T01:09:51.321Z,34.60
2018-12-16T01:12:20.305Z,37.30
2018-12-16T01:14:49.455Z,37.57
2018-12-16T01:17:18.579Z,39.33
2018-12-16T01:19:47.931Z,34.67
2018-12-16T01:22:17.179Z,39.73
2018-12-16T01:24:46.469Z,40.53
2018-12-16T01:27:15.494Z,36.73
2018-12-16T01:29:44.757Z,39.23
2018-12-16T01:32:13.821Z,35.83
2018-12-16T01:34:43.282Z,40.13
2018-12-16T01:37:12.317Z,34.97
2018-12-16T01:39:41.381Z,35.47
2018-12-16T01:42:10.585Z,33.87
2018-12-16T01:44:39.606Z,33.43
2018-12-16T01:47:08.653Z,34.27
2018-12-16T01:49:37.655Z,38.13
2018-12-16T01:52:06.746Z,36.03
2018-12-16T01:54:35.870Z,29.77
2018-12-16T01:57:04.971Z,32.90
2018-12-16T01:59:34.033Z,34.80
2018-12-16T02:02:03.247Z,34.77
2018-12-16T02:04:32.475Z,32.97
2018-12-16T02:07:01.554Z,32.33
2018-12-16T02:09:31.304Z,30.97
2018-12-16T02:12:00.314Z,32.10
2018-12-16T02:14:29.381Z,34.70
2018-12-16T02:16:58.649Z,29.77
2018-12-16T02:19:27.673Z,26.67
2018-12-16T02:21:56.695Z,30.40
2018-12-16T02:24:26.018Z,29.57
2018-12-16T02:26:55.019Z,28.83
2018-12-16T02:29:24.090Z,32.00
2018-12-16T02:31:53.149Z,38.83
2018-12-16T02:34:23.300Z,32.23
2018-12-16T02:36:52.433Z,31.40
2018-12-16T02:39:21.462Z,30.57
2018-12-16T02:41:50.482Z,30.83
2018-12-16T02:44:19.524Z,32.77
2018-12-16T02:46:48.623Z,33.83
2018-12-16T02:49:17.703Z,31.83
2018-12-16T02:51:46.731Z,32.30
2018-12-16T02:54:15.767Z,29.90
2018-12-16T02:56:45.104Z,27.93
2018-12-16T02:59:14.160Z,30.63
2018-12-16T03:01:48.068Z,28.80
2018-12-16T03:04:17.303Z,28.53
2018-12-16T03:06:46.292Z,26.77
2018-12-16T03:09:15.282Z,22.87
2018-12-16T03:11:44.552Z,27.07
2018-12-16T03:14:13.598Z,27.73
2018-12-16T03:16:42.902Z,23.80
2018-12-16T03:19:11.937Z,25.53
2018-12-16T03:21:40.980Z,26.27
2018-12-16T03:24:10.105Z,22.10
2018-12-16T03:26:39.173Z,23.80
2018-12-16T03:29:08.202Z,22.50
2018-12-16T03:31:37.523Z,23.70
2018-12-16T03:34:07.559Z,24.37
2018-12-16T03:36:36.587Z,23.40
2018-12-16T03:39:07.349Z,21.93
2018-12-16T03:41:37.235Z,20.27
2018-12-16T03:44:06.282Z,22.43
2018-12-16T03:46:35.700Z,21.90
2018-12-16T03:49:04.890Z,22.57
2018-12-16T03:51:33.972Z,22.70
2018-12-16T03:54:03.061Z,23.63
2018-12-16T03:56:32.058Z,24.13
2018-12-16T03:59:18.611Z,22.37
2018-12-16T04:01:53.012Z,20.40
2018-12-16T04:04:22.020Z,21.87
2018-12-16T04:06:51.281Z,18.67
2018-12-16T04:09:20.361Z,23.57
2018-12-16T04:11:49.375Z,19.63
2018-12-16T04:14:18.566Z,20.97
2018-12-16T04:16:49.584Z,20.47
2018-12-16T04:19:18.642Z,20.37
2018-12-16T04:21:47.643Z,20.40
2018-12-16T04:24:17.164Z,17.77
2018-12-16T04:26:46.166Z,18.27
2018-12-16T04:29:15.206Z,22.67
2018-12-16T04:31:44.211Z,19.60
2018-12-16T04:34:13.321Z,20.20
2018-12-16T04:36:42.344Z,18.30
2018-12-16T04:39:11.392Z,19.67
2018-12-16T04:41:40.431Z,18.03
2018-12-16T04:44:09.428Z,18.43
2018-12-16T04:46:38.469Z,19.50
2018-12-16T04:49:07.517Z,16.90
2018-12-16T04:51:36.699Z,19.57
2018-12-16T04:54:05.964Z,16.57
2018-12-16T04:56:35.007Z,22.47
2018-12-16T04:59:04.053Z,19.97
2018-12-16T05:01:33.148Z,19.93
2018-12-16T05:04:02.147Z,19.10
2018-12-16T05:06:31.311Z,17.83
2018-12-16T05:09:00.431Z,18.97
2018-12-16T05:11:29.749Z,17.73
2018-12-16T05:13:58.798Z,17.00
2018-12-16T05:16:27.826Z,17.97
2018-12-16T05:18:56.990Z,19.43
2018-12-16T05:21:25.998Z,16.13
2018-12-16T05:23:55.025Z,17.33
2018-12-16T05:26:24.273Z,17.40
2018-12-16T05:28:53.471Z,18.73
2018-12-16T05:31:22.493Z,17.27
2018-12-16T05:33:51.530Z,17.03
2018-12-16T05:36:20.589Z,16.43
2018-12-16T05:38:50.033Z,16.17
2018-12-16T05:41:19.021Z,19.40
2018-12-16T05:43:48.045Z,17.40
2018-12-16T05:46:17.059Z,17.17
2018-12-16T05:48:46.159Z,16.77
2018-12-16T05:51:15.279Z,17.13
2018-12-16T05:53:48.544Z,17.50
2018-12-16T05:56:15.481Z,14.77
2018-12-16T05:58:44.503Z,18.37
2018-12-16T06:01:13.547Z,18.03
2018-12-16T06:03:43.273Z,15.40
2018-12-16T06:06:12.268Z,14.87
2018-12-16T06:08:41.267Z,16.77
2018-12-16T06:11:10.447Z,19.27
2018-12-16T06:13:39.475Z,15.83
2018-12-16T06:16:08.473Z,15.17
2018-12-16T06:18:37.759Z,16.03
2018-12-16T06:21:06.776Z,19.67
2018-12-16T06:23:35.810Z,17.20
2018-12-16T06:26:04.959Z,18.33
2018-12-16T06:28:33.962Z,18.60
2018-12-16T06:31:02.976Z,18.17
2018-12-16T06:33:31.968Z,16.90
2018-12-16T06:36:01.058Z,16.17
2018-12-16T06:38:30.034Z,17.30
2018-12-16T06:40:59.053Z,18.97
2018-12-16T06:43:28.196Z,17.03
2018-12-16T06:45:57.292Z,17.27
2018-12-16T06:48:27.620Z,17.17
2018-12-16T06:50:56.826Z,17.73
2018-12-16T06:53:25.844Z,21.47
2018-12-16T06:55:54.832Z,21.07
2018-12-16T06:58:23.964Z,16.20
2018-12-16T07:00:53.016Z,16.60
2018-12-16T07:03:22.039Z,21.10
2018-12-16T07:05:51.022Z,16.07
2018-12-16T07:08:20.061Z,19.30
2018-12-16T07:10:49.318Z,16.37
2018-12-16T07:13:18.339Z,16.57
2018-12-16T07:15:47.387Z,16.20
2018-12-16T07:18:16.452Z,15.43
2018-12-16T07:20:45.454Z,16.93
2018-12-16T07:23:14.552Z,17.77
2018-12-16T07:25:43.629Z,17.73
2018-12-16T07:28:12.702Z,18.10
2018-12-16T07:30:41.825Z,16.77
2018-12-16T07:33:10.880Z,18.67
2018-12-16T07:35:40.259Z,20.30
2018-12-16T07:38:09.412Z,20.53
2018-12-16T07:40:38.554Z,19.20
2018-12-16T07:43:07.685Z,21.83
2018-12-16T07:45:37.179Z,18.13
2018-12-16T07:48:06.404Z,21.53
2018-12-16T07:50:35.821Z,18.43
2018-12-16T07:53:04.945Z,19.17
2018-12-16T07:55:34.361Z,22.93
2018-12-16T07:58:03.386Z,22.43
2018-12-16T08:00:32.395Z,19.97
2018-12-16T08:03:03.433Z,20.90
2018-12-16T08:05:32.493Z,20.07
2018-12-16T08:08:01.561Z,23.80
2018-12-16T08:10:30.715Z,25.47
2018-12-16T08:13:00.758Z,21.33
2018-12-16T08:15:29.827Z,20.10
2018-12-16T08:17:58.876Z,21.33
2018-12-16T08:20:27.983Z,20.77
2018-12-16T08:23:03.481Z,21.13
2018-12-16T08:25:32.928Z,20.03
2018-12-16T08:28:01.954Z,22.37
2018-12-16T08:30:31.071Z,20.60
2018-12-16T08:33:00.092Z,21.17
2018-12-16T08:35:29.439Z,20.83
2018-12-16T08:37:58.547Z,24.60
2018-12-16T08:40:27.602Z,21.73
2018-12-16T08:42:56.697Z,23.13
2018-12-16T08:45:25.751Z,24.47
2018-12-16T08:47:54.755Z,25.47
2018-12-16T08:50:23.866Z,25.47
2018-12-16T08:52:53.137Z,25.03
2018-12-16T08:55:22.197Z,27.23
2018-12-16T08:57:51.406Z,29.43
2018-12-16T09:00:20.430Z,24.40
2018-12-16T09:02:49.651Z,28.13
2018-12-16T09:05:18.946Z,25.43
2018-12-16T09:07:48.344Z,23.83
2018-12-16T09:10:17.394Z,26.23
2018-12-16T09:12:46.439Z,23.33
2018-12-16T09:15:17.447Z,27.40
2018-12-16T09:17:46.801Z,27.50
2018-12-16T09:20:15.829Z,29.10
2018-12-16T09:22:44.872Z,28.30
2018-12-16T09:25:14.031Z,30.60
2018-12-16T09:27:43.161Z,30.73
2018-12-16T09:30:12.598Z,26.83
2018-12-16T09:32:41.691Z,25.23
2018-12-16T09:35:10.685Z,29.03
2018-12-16T09:37:39.829Z,29.27
2018-12-16T09:40:09.148Z,29.33
2018-12-16T09:42:38.269Z,35.80
2018-12-16T09:45:07.666Z,34.17
2018-12-16T09:47:36.977Z,32.13
2018-12-16T09:50:06.653Z,34.83
2018-12-16T09:52:35.707Z,35.03
2018-12-16T09:55:05.733Z,34.37
2018-12-16T09:57:34.835Z,39.47
2018-12-16T10:00:05.524Z,33.87
2018-12-16T10:02:34.837Z,38.17
2018-12-16T10:05:04.663Z,33.43
2018-12-16T10:07:34.010Z,32.30
2018-12-16T10:10:03.130Z,37.30
2018-12-16T10:12:32.146Z,31.90
2018-12-16T10:15:02.275Z,37.13
2018-12-16T10:17:31.378Z,36.30
2018-12-16T10:20:00.433Z,36.90
2018-12-16T10:22:29.442Z,34.23
2018-12-16T10:24:58.449Z,37.63
2018-12-16T10:27:27.515Z,33.27
2018-12-16T10:29:56.684Z,37.30
2018-12-16T10:32:25.830Z,39.10
2018-12-16T10:34:55.070Z,36.60
2018-12-16T10:37:24.161Z,38.00
2018-12-16T10:39:53.189Z,38.07
2018-12-16T10:42:23.061Z,40.30
2018-12-16T10:44:52.343Z,42.87
2018-12-16T10:47:21.593Z,39.30
2018-12-16T10:49:50.893Z,42.70
2018-12-16T10:52:19.886Z,44.00
2018-12-16T10:54:50.728Z,42.60
2018-12-16T10:57:19.750Z,38.97
2018-12-16T10:59:48.850Z,49.20
2018-12-16T11:02:17.939Z,41.70
2018-12-16T11:04:47.342Z,36.37
2018-12-16T11:07:16.523Z,42.80
2018-12-16T11:09:45.539Z,45.37
2018-12-16T11:14:58.605Z,44.50
2018-12-16T11:17:28.250Z,39.07
2018-12-16T11:19:57.541Z,45.43
2018-12-16T11:22:33.046Z,44.00
2018-12-16T11:25:05.607Z,44.93
2018-12-16T11:27:33.371Z,43.73
2018-12-16T11:30:02.452Z,38.27
2018-12-16T11:32:32.046Z,40.43
2018-12-16T11:35:01.301Z,44.87
2018-12-16T11:37:30.520Z,41.80
2018-12-16T11:39:59.614Z,42.63
2018-12-16T11:42:28.622Z,38.23
2018-12-16T11:44:57.668Z,42.17
2018-12-16T11:47:26.806Z,43.57
2018-12-16T11:49:55.871Z,42.17
2018-12-16T11:52:25.057Z,44.20
2018-12-16T11:54:54.186Z,41.60
2018-12-16T11:57:23.217Z,41.07
2018-12-16T11:59:52.367Z,41.73
2018-12-16T12:02:21.455Z,41.97
2018-12-16T12:04:52.528Z,43.53
2018-12-16T12:07:21.559Z,41.00
2018-12-16T12:09:50.566Z,44.57
2018-12-16T12:12:19.624Z,43.27
2018-12-16T12:14:48.638Z,43.63
2018-12-16T12:17:17.642Z,42.60
2018-12-16T12:19:46.936Z,48.10
2018-12-16T12:22:16.065Z,44.57
2018-12-16T12:24:45.125Z,45.10
2018-12-16T12:27:14.253Z,50.83
2018-12-16T12:29:43.277Z,41.70
2018-12-16T12:32:12.322Z,45.90
2018-12-16T12:34:41.340Z,45.80
2018-12-16T12:37:10.416Z,44.97
2018-12-16T12:39:40.309Z,48.20
2018-12-16T12:42:09.632Z,45.77
2018-12-16T12:44:38.669Z,47.53
2018-12-16T12:47:07.750Z,46.40
2018-12-16T12:49:36.901Z,48.37
2018-12-16T12:52:06.005Z,46.57
2018-12-16T12:54:35.197Z,45.77
2018-12-16T12:57:04.283Z,46.83
2018-12-16T12:59:33.549Z,50.70
2018-12-16T13:02:03.645Z,52.20
2018-12-16T13:04:33.355Z,48.63
2018-12-16T13:07:02.402Z,48.17
2018-12-16T13:09:31.607Z,46.97
2018-12-16T13:12:00.692Z,50.10
2018-12-16T13:14:29.834Z,51.67
2018-12-16T13:16:59.016Z,48.33
2018-12-16T13:19:29.699Z,49.97
2018-12-16T13:22:01.027Z,54.37
2018-12-16T13:24:30.252Z,54.57
2018-12-16T13:26:59.364Z,48.27
2018-12-16T13:29:28.469Z,52.20
2018-12-16T13:31:57.484Z,48.83
2018-12-16T13:34:26.534Z,53.20
2018-12-16T13:36:55.603Z,57.77
2018-12-16T13:39:24.611Z,58.03
2018-12-16T13:41:53.705Z,51.07
2018-12-16T13:44:22.743Z,59.83
2018-12-16T13:46:51.815Z,55.43
2018-12-16T13:49:20.836Z,55.90
2018-12-16T13:51:49.881Z,52.77
2018-12-16T13:54:19.364Z,56.37
2018-12-16T13:56:48.442Z,57.47
2018-12-16T13:59:17.470Z,58.73
2018-12-16T14:01:46.638Z,56.23
2018-12-16T14:04:16.000Z,55.27
2018-12-16T14:06:45.056Z,58.93
2018-12-16T14:09:15.203Z,53.07
2018-12-16T14:11:44.499Z,60.07
2018-12-16T14:14:13.569Z,55.20
2018-12-16T14:16:42.607Z,62.40
2018-12-16T14:19:11.663Z,57.27
2018-12-16T14:21:41.015Z,56.47
2018-12-16T14:24:10.404Z,58.87
2018-12-16T14:26:39.454Z,66.53
2018-12-16T14:29:08.481Z,56.43
2018-12-16T14:31:37.647Z,58.03
2018-12-16T14:34:08.349Z,56.83
2018-12-16T14:36:37.455Z,60.13
2018-12-16T14:39:07.858Z,55.33
2018-12-16T14:41:38.898Z,58.53
2018-12-16T14:44:07.889Z,60.80
2018-12-16T14:46:36.958Z,55.57
2018-12-16T14:49:06.034Z,61.93
2018-12-16T14:51:35.287Z,62.10
2018-12-16T14:54:04.539Z,59.60
2018-12-16T14:56:33.646Z,61.63
2018-12-16T14:59:02.789Z,59.87
2018-12-16T15:01:32.036Z,61.07
2018-12-16T15:04:01.073Z,60.63
2018-12-16T15:06:31.442Z,57.67
2018-12-16T15:09:00.521Z,67.57
2018-12-16T15:11:31.727Z,64.70
2018-12-16T15:14:01.175Z,59.67
2018-12-16T15:16:30.363Z,66.37
2018-12-16T15:18:59.615Z,62.57
2018-12-16T15:21:28.660Z,70.87
2018-12-16T15:23:57.853Z,61.83
2018-12-16T15:26:27.219Z,61.90
2018-12-16T15:28:56.267Z,66.83
2018-12-16T15:31:25.554Z,71.47
2018-12-16T15:33:55.796Z,75.77
2018-12-16T15:36:24.929Z,71.73
2018-12-16T15:38:54.201Z,70.80
2018-12-16T15:41:24.555Z,68.73
2018-12-16T15:43:53.642Z,74.53
2018-12-16T15:46:22.717Z,70.47
2018-12-16T15:48:51.877Z,74.30
2018-12-16T15:51:20.941Z,73.07
2018-12-16T15:53:50.342Z,73.83
2018-12-16T15:56:19.747Z,78.60
2018-12-16T15:58:48.889Z,77.73
2018-12-16T16:01:18.541Z,75.40
2018-12-16T16:03:54.515Z,74.27
2018-12-16T16:06:23.582Z,78.50
2018-12-16T16:08:52.726Z,78.50
2018-12-16T16:11:21.818Z,77.43
2018-12-16T16:13:51.526Z,79.20
2018-12-16T16:16:20.642Z,72.60
2018-12-16T16:18:49.724Z,80.83
2018-12-16T16:21:18.873Z,74.87
2018-12-16T16:23:50.502Z,75.60
2018-12-16T16:26:19.558Z,74.67
2018-12-16T16:28:48.728Z,75.00
2018-12-16T16:31:17.910Z,79.87
2018-12-16T16:33:47.350Z,80.20
2018-12-16T16:36:16.467Z,74.70
2018-12-16T16:38:46.118Z,79.97
2018-12-16T16:41:15.242Z,77.63
2018-12-16T16:43:44.387Z,82.03
2018-12-16T16:46:13.472Z,80.97
2018-12-16T16:48:42.608Z,76.00
2018-12-16T16:51:12.004Z,79.97
2018-12-16T16:53:41.275Z,81.30
2018-12-16T16:56:10.358Z,78.47
2018-12-16T16:58:39.833Z,77.70
2018-12-16T17:01:09.463Z,77.97
2018-12-16T17:03:38.557Z,81.50
2018-12-16T17:06:10.898Z,77.90
2018-12-16T17:08:40.082Z,76.90
2018-12-16T17:11:09.792Z,75.57
2018-12-16T17:13:38.830Z,83.53
2018-12-16T17:16:08.373Z,75.23
2018-12-16T17:18:37.992Z,78.30
2018-12-16T17:21:07.506Z,80.17
2018-12-16T17:23:36.935Z,70.93
2018-12-16T17:26:06.110Z,78.03
2018-12-16T17:28:35.286Z,76.30
2018-12-16T17:31:04.371Z,74.30
2018-12-16T17:33:33.808Z,75.07
2018-12-16T17:36:03.412Z,73.30
2018-12-16T17:38:32.711Z,76.23
2018-12-16T17:41:01.941Z,69.17
2018-12-16T17:43:31.370Z,73.27
2018-12-16T17:46:00.382Z,73.63
2018-12-16T17:48:29.461Z,73.23
2018-12-16T17:50:58.550Z,74.50
2018-12-16T17:53:27.902Z,72.37
2018-12-16T17:55:57.535Z,76.30
2018-12-16T17:58:27.018Z,74.37
2018-12-16T18:00:56.374Z,72.67
2018-12-16T18:03:25.722Z,71.10
2018-12-16T18:05:54.816Z,65.77
2018-12-16T18:08:24.004Z,76.03
2018-12-16T18:10:53.098Z,75.87
2018-12-16T18:13:22.204Z,69.30
2018-12-16T18:15:51.264Z,68.53
2018-12-16T18:18:20.305Z,73.00
2018-12-16T18:20:49.367Z,69.13
2018-12-16T18:23:18.870Z,64.53
2018-12-16T18:25:47.986Z,73.50
2018-12-16T18:28:17.015Z,66.40
2018-12-16T18:30:46.157Z,73.23
2018-12-16T18:33:15.490Z,69.57
2018-12-16T18:35:44.525Z,67.50
2018-12-16T18:38:20.036Z,67.90
2018-12-16T18:40:49.135Z,69.90
2018-12-16T18:43:18.201Z,67.23
2018-12-16T18:45:47.238Z,70.37
2018-12-16T18:48:16.493Z,69.77
2018-12-16T18:50:45.565Z,70.20
2018-12-16T18:53:15.832Z,69.27
2018-12-16T18:55:45.329Z,63.53
2018-12-16T18:58:14.540Z,66.43
2018-12-16T19:00:43.573Z,69.10
2018-12-16T19:03:12.613Z,69.70
2018-12-16T19:05:41.666Z,66.47
2018-12-16T19:08:11.292Z,66.20
2018-12-16T19:10:40.482Z,70.13
2018-12-16T19:13:09.676Z,71.23
2018-12-16T19:15:38.748Z,67.57
2018-12-16T19:18:07.875Z,72.40
2018-12-16T19:20:37.130Z,68.50
2018-12-16T19:23:06.875Z,63.53
2018-12-16T19:25:36.309Z,69.00
2018-12-16T19:28:05.648Z,69.53
2018-12-16T19:30:35.044Z,72.27
2018-12-16T19:33:06.409Z,70.80
2018-12-16T19:35:35.740Z,69.87
2018-12-16T19:38:05.253Z,66.43
2018-12-16T19:40:34.625Z,70.73
2018-12-16T19:43:04.052Z,69.00
2018-12-16T19:45:33.264Z,77.17
2018-12-16T19:48:02.473Z,67.43
2018-12-16T19:50:31.872Z,66.40
2018-12-16T19:53:01.091Z,72.67
2018-12-16T19:55:30.160Z,70.87
2018-12-16T19:57:59.680Z,69.73
2018-12-16T20:00:28.774Z,65.13
2018-12-16T20:02:58.623Z,73.57
2018-12-16T20:05:27.985Z,67.43
2018-12-16T20:07:57.093Z,73.03
2018-12-16T20:10:26.155Z,70.20
2018-12-16T20:12:55.469Z,74.50
2018-12-16T20:15:24.777Z,69.97
2018-12-16T20:17:54.118Z,70.67
2018-12-16T20:20:23.457Z,79.70
2018-12-16T20:22:52.564Z,71.77
2018-12-16T20:25:21.586Z,74.47
2018-12-16T20:27:50.942Z,74.63
2018-12-16T20:30:20.023Z,72.57
2018-12-16T20:32:49.262Z,77.40
2018-12-16T20:35:19.339Z,74.63
2018-12-16T20:37:49.144Z,75.70
2018-12-16T20:40:18.210Z,76.43
2018-12-16T20:42:47.474Z,70.43
2018-12-16T20:45:16.542Z,77.50
2018-12-16T20:47:45.708Z,67.67
2018-12-16T20:50:14.806Z,69.40
2018-12-16T20:52:43.864Z,76.03
2018-12-16T20:55:13.200Z,72.80
2018-12-16T20:57:42.268Z,72.10
2018-12-16T21:00:11.759Z,75.93
2018-12-16T21:02:40.943Z,72.60
2018-12-16T21:05:10.192Z,75.53
2018-12-16T21:07:39.785Z,79.40
2018-12-16T21:10:09.046Z,74.67
2018-12-16T21:14:45.378Z,71.97
2018-12-16T21:19:21.308Z,75.87
2018-12-16T21:21:50.503Z,72.20
2018-12-16T21:24:20.335Z,74.73
2018-12-16T21:26:49.619Z,78.23
2018-12-16T21:29:18.637Z,74.90
2018-12-16T21:31:47.703Z,74.90
2018-12-16T21:34:16.723Z,73.63
2018-12-16T21:36:45.971Z,70.97
2018-12-16T21:39:15.465Z,68.93
2018-12-16T21:41:45.601Z,68.90
2018-12-16T21:44:14.850Z,65.90
2018-12-16T21:46:43.939Z,67.80
2018-12-16T21:49:13.043Z,65.73
2018-12-16T21:51:42.490Z,65.23
2018-12-16T21:54:11.609Z,72.33
2018-12-16T21:56:47.082Z,68.40
2018-12-16T21:59:16.188Z,71.37
2018-12-16T22:01:45.222Z,69.37
2018-12-16T22:04:14.318Z,73.93
2018-12-16T22:06:43.693Z,72.33
2018-12-16T22:09:12.759Z,76.00
2018-12-16T22:11:41.857Z,78.43
2018-12-16T22:14:11.026Z,74.50
2018-12-16T22:16:40.033Z,79.20
2018-12-16T22:19:09.578Z,71.73
2018-12-16T22:21:38.574Z,80.27
2018-12-16T22:24:07.615Z,71.90
2018-12-16T22:26:36.673Z,71.30
2018-12-16T22:29:05.790Z,71.03
2018-12-16T22:31:34.876Z,71.03
2018-12-16T22:34:04.380Z,69.23
2018-12-16T22:36:33.419Z,66.60
2018-12-16T22:39:02.986Z,71.77
2018-12-16T22:41:34.162Z,76.17
2018-12-16T22:44:03.331Z,70.80
2018-12-16T22:46:32.823Z,76.60
2018-12-16T22:49:01.882Z,70.80
2018-12-16T22:51:30.966Z,75.77
2018-12-16T22:53:59.958Z,83.63
2018-12-16T22:56:29.002Z,74.33
2018-12-16T22:58:58.070Z,80.70
2018-12-16T23:01:27.224Z,76.00
2018-12-16T23:03:56.519Z,81.33
2018-12-16T23:06:25.598Z,75.53
2018-12-16T23:08:54.664Z,78.60
2018-12-16T23:11:23.674Z,70.77
2018-12-16T23:13:54.830Z,74.33
2018-12-16T23:16:23.904Z,71.63
2018-12-16T23:18:53.285Z,78.17
2018-12-16T23:21:22.331Z,70.60
2018-12-16T23:23:51.373Z,74.20
2018-12-16T23:26:20.588Z,71.23
2018-12-16T23:28:49.589Z,79.07
2018-12-16T23:31:18.730Z,67.43
2018-12-16T23:33:47.739Z,68.73
2018-12-16T23:36:17.259Z,67.23
2018-12-16T23:38:46.267Z,63.57
2018-12-16T23:41:15.852Z,60.97
2018-12-16T23:43:45.108Z,67.20
2018-12-16T23:46:14.152Z,63.47
2018-12-16T23:48:43.197Z,65.27
2018-12-16T23:51:12.206Z,64.50
2018-12-16T23:53:41.334Z,60.40
2018-12-16T23:56:18.669Z,57.60
2018-12-16T23:58:47.809Z,61.10
